createdAt,value
2022-09-15T00:01:17.921Z,99453.81
2022-09-15T00:03:47.742Z,99452.97
2022-09-15T00:06:17.685Z,99460.81
2022-09-15T00:08:47.270Z,99460.22
2022-09-15T00:11:22.494Z,99454.34
2022-09-15T00:13:53.597Z,99454.16
2022-09-15T00:16:26.902Z,99448.75
2022-09-15T00:18:56.911Z,99456.69
2022-09-15T00:21:28.496Z,99453.28
2022-09-15T00:23:58.143Z,99455.94
2022-09-15T00:26:32.174Z,99461.09
2022-09-15T00:29:02.065Z,99462.78
2022-09-15T00:31:33.273Z,99461.78
2022-09-15T00:34:05.236Z,99464.22
2022-09-15T00:36:34.739Z,99468.34
2022-09-15T00:39:04.561Z,99469.66
2022-09-15T00:41:36.837Z,99464.00
2022-09-15T00:44:09.242Z,99460.03
2022-09-15T00:46:39.924Z,99467.41
2022-09-15T00:49:12.624Z,99471.22
2022-09-15T00:51:47.449Z,99478.72
2022-09-15T00:54:20.741Z,99478.34
2022-09-15T00:56:54.632Z,99481.41
2022-09-15T00:59:27.502Z,99480.00
2022-09-15T01:02:00.191Z,99473.19
2022-09-15T01:04:30.201Z,99472.50
2022-09-15T01:07:01.799Z,99478.94
2022-09-15T01:09:36.241Z,99478.28
2022-09-15T01:12:08.896Z,99481.91
2022-09-15T01:14:38.762Z,99479.25
2022-09-15T01:17:13.276Z,99484.44
2022-09-15T01:20:05.726Z,99480.94
2022-09-15T01:22:39.573Z,99479.31
2022-09-15T01:25:16.742Z,99478.66
2022-09-15T01:28:23.278Z,99480.66
2022-09-15T01:30:57.903Z,99478.47
2022-09-15T01:33:31.406Z,99467.41
2022-09-15T01:36:05.615Z,99455.28
2022-09-15T01:38:42.227Z,99455.19
2022-09-15T01:41:17.005Z,99459.53
2022-09-15T01:43:52.247Z,99458.78
2022-09-15T01:46:27.778Z,99464.28
2022-09-15T01:48:58.190Z,99467.09
2022-09-15T01:51:28.704Z,99460.38
2022-09-15T01:53:58.613Z,99466.06
2022-09-15T01:56:28.111Z,99462.91
2022-09-15T01:58:57.687Z,99478.31
2022-09-15T02:01:40.665Z,99472.53
2022-09-15T02:04:14.771Z,99472.91
2022-09-15T02:06:52.138Z,99473.06
2022-09-15T02:09:24.723Z,99469.78
2022-09-15T02:12:03.711Z,99466.44
2022-09-15T02:14:43.449Z,99470.13
2022-09-15T02:17:19.032Z,99471.25
2022-09-15T02:19:51.168Z,99472.28
2022-09-15T02:22:24.441Z,99478.50
2022-09-15T02:24:59.020Z,99477.75
2022-09-15T02:27:33.884Z,99473.31
2022-09-15T02:30:08.600Z,99473.31
2022-09-15T02:32:43.245Z,99471.63
2022-09-15T02:35:13.361Z,99479.56
2022-09-15T02:37:43.253Z,99482.28
2022-09-15T02:40:13.954Z,99481.53
2022-09-15T02:42:43.596Z,99483.38
2022-09-15T02:45:13.605Z,99480.75
2022-09-15T02:47:45.953Z,99480.69
2022-09-15T02:50:15.712Z,99482.47
2022-09-15T02:52:45.238Z,99485.09
2022-09-15T02:55:15.872Z,99488.63
2022-09-15T02:57:45.426Z,99485.16
2022-09-15T03:00:19.089Z,99481.69
2022-09-15T03:02:53.494Z,99481.78
2022-09-15T03:05:25.645Z,99474.84
2022-09-15T03:07:56.023Z,99478.63
2022-09-15T03:10:26.921Z,99484.94
2022-09-15T03:12:57.438Z,99482.38
2022-09-15T03:15:28.568Z,99485.19
2022-09-15T03:18:00.702Z,99487.00
2022-09-15T03:20:31.073Z,99488.69
2022-09-15T03:23:00.653Z,99484.84
2022-09-15T03:25:30.376Z,99486.91
2022-09-15T03:27:59.895Z,99486.84
2022-09-15T03:30:29.445Z,99476.22
2022-09-15T03:33:01.987Z,99476.06
2022-09-15T03:35:31.488Z,99477.03
2022-09-15T03:38:01.111Z,99485.88
2022-09-15T03:40:30.803Z,99493.25
2022-09-15T03:43:00.401Z,99490.22
2022-09-15T03:45:29.957Z,99496.00
2022-09-15T03:48:02.133Z,99499.97
2022-09-15T03:50:31.752Z,99497.78
2022-09-15T03:53:02.153Z,99496.53
2022-09-15T03:55:31.909Z,99494.47
2022-09-15T03:58:01.429Z,99496.66
2022-09-15T04:00:31.070Z,99486.56
2022-09-15T04:03:03.266Z,99490.56
2022-09-15T04:05:32.886Z,99490.34
2022-09-15T04:08:02.418Z,99497.16
2022-09-15T04:10:32.032Z,99499.81
2022-09-15T04:13:01.585Z,99501.31
2022-09-15T04:15:31.111Z,99502.88
2022-09-15T04:18:04.948Z,99497.34
2022-09-15T04:20:34.695Z,99501.41
2022-09-15T04:23:04.242Z,99501.34
2022-09-15T04:25:33.752Z,99506.44
2022-09-15T04:28:03.605Z,99497.59
2022-09-15T04:30:33.110Z,99494.94
2022-09-15T04:33:05.275Z,99499.31
2022-09-15T04:35:34.797Z,99494.88
2022-09-15T04:38:04.325Z,99497.31
2022-09-15T04:40:33.993Z,99500.72
2022-09-15T04:43:03.727Z,99493.53
2022-09-15T04:45:33.513Z,99494.34
2022-09-15T04:48:05.815Z,99500.53
2022-09-15T04:50:35.381Z,99491.59
2022-09-15T04:53:04.943Z,99490.75
2022-09-15T04:55:34.978Z,99492.38
2022-09-15T04:58:04.864Z,99493.31
2022-09-15T05:00:36.338Z,99488.00
2022-09-15T05:03:08.469Z,99501.19
2022-09-15T05:05:38.168Z,99501.06
2022-09-15T05:08:08.168Z,99486.75
2022-09-15T05:10:38.197Z,99500.78
2022-09-15T05:13:07.724Z,99496.09
2022-09-15T05:15:37.256Z,99497.72
2022-09-15T05:18:09.517Z,99495.72
2022-09-15T05:20:39.027Z,99497.22
2022-09-15T05:23:08.554Z,99493.50
2022-09-15T05:25:38.784Z,99504.03
2022-09-15T05:28:08.384Z,99496.91
2022-09-15T05:30:40.619Z,99511.06
2022-09-15T05:33:14.657Z,99511.88
2022-09-15T05:35:52.685Z,99500.31
2022-09-15T05:38:22.239Z,99510.06
2022-09-15T05:40:52.305Z,99502.88
2022-09-15T05:43:21.954Z,99515.09
2022-09-15T05:45:57.299Z,99516.59
2022-09-15T05:48:30.113Z,99514.50
2022-09-15T05:51:00.306Z,99516.84
2022-09-15T05:53:30.992Z,99516.50
2022-09-15T05:56:01.433Z,99524.19
2022-09-15T05:58:30.952Z,99525.91
2022-09-15T06:01:05.559Z,99526.63
2022-09-15T06:03:38.113Z,99525.47
2022-09-15T06:06:09.246Z,99527.84
2022-09-15T06:08:43.726Z,99523.91
2022-09-15T06:11:15.652Z,99526.25
2022-09-15T06:13:45.901Z,99532.84
2022-09-15T06:16:17.179Z,99532.44
2022-09-15T06:18:49.833Z,99541.78
2022-09-15T06:21:21.677Z,99541.38
2022-09-15T06:23:55.469Z,99546.16
2022-09-15T06:26:25.843Z,99543.97
2022-09-15T06:28:56.634Z,99543.53
2022-09-15T06:31:26.981Z,99542.25
2022-09-15T06:33:59.803Z,99548.97
2022-09-15T06:36:30.666Z,99549.69
2022-09-15T06:39:00.945Z,99551.28
2022-09-15T06:41:52.497Z,99544.66
2022-09-15T06:44:20.900Z,99555.63
2022-09-15T06:46:50.811Z,99551.47
2022-09-15T06:49:23.376Z,99545.50
2022-09-15T06:51:52.886Z,99547.41
2022-09-15T06:54:22.399Z,99560.03
2022-09-15T06:56:52.602Z,99552.31
2022-09-15T06:59:23.958Z,99563.28
2022-09-15T07:01:56.138Z,99561.88
2022-09-15T07:04:28.271Z,99563.97
2022-09-15T07:06:57.794Z,99564.38
2022-09-15T07:09:27.318Z,99567.31
2022-09-15T07:11:56.933Z,99574.66
2022-09-15T07:14:26.419Z,99573.75
2022-09-15T07:16:55.941Z,99577.44
2022-09-15T07:19:28.039Z,99578.31
2022-09-15T07:21:57.549Z,99579.31
2022-09-15T07:24:27.144Z,99568.06
2022-09-15T07:26:56.663Z,99572.81
2022-09-15T07:29:26.247Z,99578.03
2022-09-15T07:31:55.786Z,99569.19
2022-09-15T07:34:27.885Z,99574.63
2022-09-15T07:36:57.401Z,99573.75
2022-09-15T07:39:27.120Z,99581.88
2022-09-15T07:41:56.630Z,99584.44
2022-09-15T07:44:28.939Z,99584.81
2022-09-15T07:46:58.445Z,99584.13
2022-09-15T07:49:31.265Z,99584.38
2022-09-15T07:52:00.865Z,99590.69
2022-09-15T07:54:30.402Z,99604.06
2022-09-15T07:56:59.933Z,99603.38
2022-09-15T07:59:29.477Z,99601.91
2022-09-15T08:01:59.035Z,99605.06
2022-09-15T08:04:31.191Z,99607.03
2022-09-15T08:07:00.759Z,99605.03
2022-09-15T08:09:30.293Z,99620.69
2022-09-15T08:11:59.834Z,99624.78
2022-09-15T08:14:31.750Z,99625.25
2022-09-15T08:17:08.144Z,99629.94
2022-09-15T08:19:42.870Z,99629.28
2022-09-15T08:22:12.606Z,99639.06
2022-09-15T08:24:42.205Z,99635.22
2022-09-15T08:27:11.872Z,99638.22
2022-09-15T08:29:41.373Z,99639.66
2022-09-15T08:32:10.892Z,99643.63
2022-09-15T08:34:43.270Z,99653.94
2022-09-15T08:37:12.780Z,99642.13
2022-09-15T08:39:42.293Z,99635.38
2022-09-15T08:42:17.613Z,99640.34
2022-09-15T08:44:50.015Z,99646.06
2022-09-15T08:47:22.156Z,99651.91
2022-09-15T08:49:59.450Z,99654.00
2022-09-15T08:52:33.216Z,99660.84
2022-09-15T08:55:06.495Z,99648.97
2022-09-15T08:57:36.057Z,99651.75
2022-09-15T09:00:06.379Z,99659.88
2022-09-15T09:02:54.034Z,99654.06
2022-09-15T09:05:52.061Z,99658.00
2022-09-15T09:08:44.638Z,99656.19
2022-09-15T09:11:20.784Z,99660.03
2022-09-15T09:13:55.843Z,99665.22
2022-09-15T09:16:42.641Z,99668.81
2022-09-15T09:19:23.991Z,99664.06
2022-09-15T09:21:59.383Z,99664.41
2022-09-15T09:24:36.967Z,99670.41
2022-09-15T09:27:07.054Z,99662.56
2022-09-15T09:29:38.801Z,99667.31
2022-09-15T09:32:19.805Z,99672.31
2022-09-15T09:34:56.597Z,99675.72
2022-09-15T09:37:28.812Z,99673.19
2022-09-15T09:39:58.456Z,99672.97
2022-09-15T09:42:31.194Z,99674.00
2022-09-15T09:45:00.876Z,99672.22
2022-09-15T09:47:32.814Z,99675.13
2022-09-15T09:50:02.883Z,99675.75
2022-09-15T09:52:39.409Z,99683.97
2022-09-15T09:55:23.721Z,99675.06
2022-09-15T09:57:54.168Z,99666.25
2022-09-15T10:00:34.435Z,99663.97
2022-09-15T10:03:14.321Z,99663.00
2022-09-15T10:05:44.429Z,99667.69
2022-09-15T10:08:23.554Z,99664.38
2022-09-15T10:10:54.230Z,99661.03
2022-09-15T10:13:24.251Z,99668.88
2022-09-15T10:15:56.357Z,99664.38
2022-09-15T10:18:30.748Z,99669.88
2022-09-15T10:21:00.487Z,99678.03
2022-09-15T10:23:34.219Z,99669.16
2022-09-15T10:26:18.778Z,99668.25
2022-09-15T10:28:48.351Z,99662.09
2022-09-15T10:31:29.549Z,99662.06
2022-09-15T10:33:59.219Z,99659.91
2022-09-15T10:36:32.194Z,99658.19
2022-09-15T10:39:10.450Z,99664.88
2022-09-15T10:41:44.462Z,99657.56
2022-09-15T10:44:27.215Z,99663.19
2022-09-15T10:47:03.492Z,99662.13
2022-09-15T10:49:55.670Z,99659.25
2022-09-15T10:52:34.649Z,99659.59
2022-09-15T10:55:27.789Z,99653.84
2022-09-15T10:58:13.471Z,99651.38
2022-09-15T11:00:47.453Z,99662.59
2022-09-15T11:03:30.158Z,99653.00
2022-09-15T11:06:05.760Z,99652.75
2022-09-15T11:08:56.469Z,99653.22
2022-09-15T11:11:36.594Z,99655.03
2022-09-15T11:14:18.196Z,99648.59
2022-09-15T11:16:56.196Z,99656.56
2022-09-15T11:19:40.458Z,99663.22
2022-09-15T11:22:12.002Z,99661.09
2022-09-15T11:24:45.211Z,99662.97
2022-09-15T11:27:21.149Z,99658.06
2022-09-15T11:30:06.783Z,99663.91
2022-09-15T11:32:44.983Z,99659.41
2022-09-15T11:35:39.872Z,99664.22
2022-09-15T11:38:20.660Z,99660.03
2022-09-15T11:40:53.217Z,99658.69
2022-09-15T11:43:33.485Z,99672.47
2022-09-15T11:46:06.157Z,99669.88
2022-09-15T11:48:41.890Z,99672.53
2022-09-15T11:51:12.141Z,99679.94
2022-09-15T11:53:45.516Z,99672.72
2022-09-15T11:56:22.688Z,99685.56
2022-09-15T11:59:03.770Z,99680.91
2022-09-15T12:01:36.849Z,99676.34
2022-09-15T12:04:10.786Z,99678.72
2022-09-15T12:06:46.101Z,99678.56
2022-09-15T12:09:17.094Z,99675.72
2022-09-15T12:11:49.237Z,99690.53
2022-09-15T12:14:29.544Z,99681.72
2022-09-15T12:16:59.957Z,99686.22
2022-09-15T12:19:44.978Z,99683.66
2022-09-15T12:22:19.234Z,99684.66
2022-09-15T12:24:52.105Z,99692.56
2022-09-15T12:27:24.866Z,99687.22
2022-09-15T12:29:58.694Z,99689.47
2022-09-15T12:32:29.422Z,99687.25
2022-09-15T12:35:04.836Z,99680.94
2022-09-15T12:37:44.441Z,99689.31
2022-09-15T12:40:33.184Z,99689.03
2022-09-15T12:43:04.105Z,99690.94
2022-09-15T12:45:38.538Z,99692.50
2022-09-15T12:48:10.694Z,99696.53
2022-09-15T12:50:41.766Z,99692.59
2022-09-15T12:53:17.594Z,99699.34
2022-09-15T12:55:51.881Z,99697.94
2022-09-15T12:58:25.396Z,99700.03
2022-09-15T13:01:32.936Z,99706.78
2022-09-15T13:04:28.181Z,99709.03
2022-09-15T13:07:32.561Z,99705.66
2022-09-15T13:10:19.171Z,99714.22
2022-09-15T13:12:54.675Z,99710.53
2022-09-15T13:15:26.381Z,99705.84
2022-09-15T13:17:56.719Z,99712.72
2022-09-15T13:20:34.691Z,99710.28
2022-09-15T13:23:04.938Z,99705.94
2022-09-15T13:25:34.610Z,99711.28
2022-09-15T13:28:05.429Z,99708.75
2022-09-15T13:30:43.709Z,99718.88
2022-09-15T13:33:26.249Z,99710.66
2022-09-15T13:36:07.896Z,99712.75
2022-09-15T13:39:04.374Z,99718.38
2022-09-15T13:42:12.644Z,99712.00
2022-09-15T13:44:59.787Z,99716.19
2022-09-15T13:47:42.351Z,99713.13
2022-09-15T13:50:17.612Z,99703.19
2022-09-15T13:53:21.532Z,99705.59
2022-09-15T13:55:51.847Z,99708.94
2022-09-15T14:01:14.440Z,99700.78
2022-09-15T14:03:48.297Z,99700.50
2022-09-15T14:06:21.043Z,99703.47
2022-09-15T14:08:55.666Z,99695.69
2022-09-15T14:11:28.988Z,99696.53
2022-09-15T14:13:59.252Z,99696.38
2022-09-15T14:16:35.505Z,99697.22
2022-09-15T14:19:07.084Z,99701.16
2022-09-15T14:21:37.391Z,99701.81
2022-09-15T14:24:23.645Z,99696.13
2022-09-15T14:26:53.245Z,99703.00
2022-09-15T14:29:24.474Z,99697.31
2022-09-15T14:31:54.271Z,99709.41
2022-09-15T14:34:26.590Z,99701.75
2022-09-15T14:37:04.228Z,99705.66
2022-09-15T14:39:37.716Z,99698.84
2022-09-15T14:42:22.613Z,99703.50
2022-09-15T14:47:44.750Z,99697.94
2022-09-15T14:50:16.855Z,99703.28
2022-09-15T14:52:48.302Z,99701.31
2022-09-15T14:55:23.222Z,99701.06
2022-09-15T14:57:57.605Z,99697.28
2022-09-15T15:00:30.571Z,99703.59
2022-09-15T15:03:16.139Z,99700.94
2022-09-15T15:05:57.999Z,99690.34
2022-09-15T15:08:33.100Z,99691.94
2022-09-15T15:11:05.592Z,99695.34
2022-09-15T15:13:35.257Z,99696.91
2022-09-15T15:16:08.417Z,99698.59
2022-09-15T15:18:43.136Z,99698.34
2022-09-15T15:21:41.435Z,99699.78
2022-09-15T15:24:17.168Z,99696.13
2022-09-15T15:26:50.606Z,99693.44
2022-09-15T15:29:40.442Z,99694.66
2022-09-15T15:32:14.321Z,99698.84
2022-09-15T15:34:50.061Z,99699.13
2022-09-15T15:37:26.998Z,99698.50
2022-09-15T15:39:57.405Z,99692.31
2022-09-15T15:42:30.354Z,99698.38
2022-09-15T15:45:05.641Z,99695.47
2022-09-15T15:47:38.540Z,99697.16
2022-09-15T15:50:16.370Z,99692.78
2022-09-15T15:52:46.357Z,99691.22
2022-09-15T15:55:16.689Z,99699.47
2022-09-15T15:57:50.961Z,99703.28
2022-09-15T16:00:23.385Z,99697.19
2022-09-15T16:02:54.055Z,99700.84
2022-09-15T16:05:24.812Z,99696.50
2022-09-15T16:07:56.125Z,99698.31
2022-09-15T16:10:27.716Z,99694.06
2022-09-15T16:12:59.907Z,99696.25
2022-09-15T16:15:29.846Z,99699.31
2022-09-15T16:17:59.630Z,99703.34
2022-09-15T16:20:30.608Z,99689.75
2022-09-15T16:23:00.281Z,99700.06
2022-09-15T16:25:36.028Z,99694.38
2022-09-15T16:28:08.300Z,99701.06
2022-09-15T16:30:37.870Z,99695.38
2022-09-15T16:33:07.446Z,99695.97
2022-09-15T16:35:40.737Z,99700.25
2022-09-15T16:38:10.488Z,99697.59
2022-09-15T16:40:40.117Z,99705.25
2022-09-15T16:43:16.264Z,99700.16
2022-09-15T16:45:46.355Z,99706.47
2022-09-15T16:48:15.954Z,99703.91
2022-09-15T16:51:01.696Z,99704.75
2022-09-15T16:53:36.399Z,99700.50
2022-09-15T16:56:06.104Z,99708.78
2022-09-15T16:58:38.227Z,99706.09
2022-09-15T17:01:08.200Z,99709.97
2022-09-15T17:03:37.776Z,99711.91
2022-09-15T17:06:07.824Z,99709.50
2022-09-15T17:08:37.344Z,99707.06
2022-09-15T17:11:08.260Z,99705.59
2022-09-15T17:13:40.406Z,99709.72
2022-09-15T17:16:10.154Z,99719.16
2022-09-15T17:18:39.738Z,99714.19
2022-09-15T17:21:09.442Z,99719.91
2022-09-15T17:23:40.756Z,99722.78
2022-09-15T17:26:14.844Z,99712.19
2022-09-15T17:28:47.022Z,99713.28
2022-09-15T17:31:18.716Z,99721.41
2022-09-15T17:33:48.754Z,99717.16
2022-09-15T17:36:18.370Z,99717.38
2022-09-15T17:38:48.896Z,99723.69
2022-09-15T17:41:20.047Z,99720.44
2022-09-15T17:43:52.462Z,99721.50
2022-09-15T17:46:22.217Z,99724.28
2022-09-15T17:48:51.773Z,99723.66
2022-09-15T17:51:21.338Z,99718.56
2022-09-15T17:53:50.870Z,99716.22
2022-09-15T17:56:20.427Z,99723.50
2022-09-15T17:58:52.528Z,99724.59
2022-09-15T18:01:22.165Z,99730.16
2022-09-15T18:03:51.797Z,99729.66
2022-09-15T18:06:21.350Z,99735.94
2022-09-15T18:08:51.190Z,99740.56
2022-09-15T18:11:21.317Z,99734.47
2022-09-15T18:13:53.500Z,99742.59
2022-09-15T18:16:23.287Z,99742.59
2022-09-15T18:18:52.895Z,99736.50
2022-09-15T18:21:28.574Z,99741.13
2022-09-15T18:23:58.599Z,99748.38
2022-09-15T18:26:28.153Z,99748.59
2022-09-15T18:29:02.087Z,99751.41
2022-09-15T18:31:31.443Z,99758.63
2022-09-15T18:34:00.974Z,99761.44
2022-09-15T18:36:30.696Z,99758.88
2022-09-15T18:39:00.911Z,99757.16
2022-09-15T18:41:30.487Z,99755.47
2022-09-15T18:44:02.606Z,99761.03
2022-09-15T18:46:32.232Z,99763.50
2022-09-15T18:49:02.863Z,99757.75
2022-09-15T18:51:50.537Z,99761.84
2022-09-15T18:54:20.961Z,99759.63
2022-09-15T18:56:51.438Z,99756.44
2022-09-15T18:59:23.555Z,99754.97
2022-09-15T19:01:53.215Z,99762.44
2022-09-15T19:04:22.827Z,99759.00
2022-09-15T19:06:52.385Z,99759.31
2022-09-15T19:09:22.086Z,99766.59
2022-09-15T19:11:51.649Z,99772.03
2022-09-15T19:14:23.874Z,99768.59
2022-09-15T19:16:58.136Z,99774.16
2022-09-15T19:19:28.400Z,99775.09
2022-09-15T19:21:57.958Z,99775.22
2022-09-15T19:24:33.509Z,99776.16
2022-09-15T19:27:03.482Z,99775.31
2022-09-15T19:29:37.214Z,99784.28
2022-09-15T19:32:09.223Z,99786.19
2022-09-15T19:34:40.310Z,99799.72
2022-09-15T19:37:13.051Z,99799.09
2022-09-15T19:39:46.033Z,99798.44
2022-09-15T19:45:09.081Z,99791.75
2022-09-15T19:47:39.255Z,99805.16
2022-09-15T19:50:11.642Z,99797.38
2022-09-15T19:52:41.247Z,99803.75
2022-09-15T19:55:13.041Z,99796.84
2022-09-15T19:57:43.314Z,99803.13
2022-09-15T20:00:17.083Z,99801.41
2022-09-15T20:02:50.006Z,99806.75
2022-09-15T20:05:19.721Z,99805.03
2022-09-15T20:07:49.746Z,99805.03
2022-09-15T20:10:19.450Z,99814.00
2022-09-15T20:12:49.006Z,99809.63
2022-09-15T20:15:21.219Z,99816.84
2022-09-15T20:17:50.754Z,99817.38
2022-09-15T20:20:20.455Z,99809.06
2022-09-15T20:22:49.989Z,99819.44
2022-09-15T20:25:19.945Z,99818.28
2022-09-15T20:27:50.174Z,99821.53
2022-09-15T20:30:22.493Z,99815.75
2022-09-15T20:32:52.054Z,99814.19
2022-09-15T20:35:21.629Z,99823.94
2022-09-15T20:37:51.525Z,99829.28
2022-09-15T20:40:21.380Z,99835.53
2022-09-15T20:42:50.957Z,99838.13
2022-09-15T20:45:23.080Z,99838.22
2022-09-15T20:47:54.412Z,99838.31
2022-09-15T20:50:23.950Z,99841.06
2022-09-15T20:52:53.496Z,99839.34
2022-09-15T20:55:23.601Z,99840.41
2022-09-15T20:57:53.149Z,99838.72
2022-09-15T21:00:26.604Z,99834.47
2022-09-15T21:02:57.322Z,99835.59
2022-09-15T21:05:26.878Z,99835.72
2022-09-15T21:07:56.750Z,99835.97
2022-09-15T21:10:27.056Z,99842.44
2022-09-15T21:12:56.643Z,99843.78
2022-09-15T21:15:30.076Z,99840.97
2022-09-15T21:17:59.643Z,99843.63
2022-09-15T21:20:29.170Z,99842.50
2022-09-15T21:22:59.899Z,99849.31
2022-09-15T21:25:29.426Z,99853.31
2022-09-15T21:27:58.975Z,99854.56
2022-09-15T21:30:31.420Z,99855.78
2022-09-15T21:33:01.170Z,99856.84
2022-09-15T21:35:31.549Z,99859.66
2022-09-15T21:38:01.693Z,99863.19
2022-09-15T21:40:31.254Z,99864.88
2022-09-15T21:43:01.437Z,99865.53
2022-09-15T21:45:33.617Z,99861.75
2022-09-15T21:48:03.196Z,99859.78
2022-09-15T21:50:32.772Z,99865.66
2022-09-15T21:53:02.335Z,99866.31
2022-09-15T21:55:31.854Z,99871.44
2022-09-15T21:58:01.512Z,99874.03
2022-09-15T22:00:34.210Z,99871.16
2022-09-15T22:03:03.832Z,99868.41
2022-09-15T22:05:33.359Z,99872.78
2022-09-15T22:08:05.129Z,99868.31
2022-09-15T22:10:35.237Z,99864.03
2022-09-15T22:13:04.901Z,99862.53
2022-09-15T22:15:37.782Z,99864.59
2022-09-15T22:18:07.925Z,99866.41
2022-09-15T22:20:37.593Z,99867.25
2022-09-15T22:23:07.134Z,99874.19
2022-09-15T22:25:36.726Z,99870.50
2022-09-15T22:28:06.311Z,99871.25
2022-09-15T22:30:38.487Z,99872.00
2022-09-15T22:33:08.048Z,99875.44
2022-09-15T22:35:37.583Z,99865.66
2022-09-15T22:38:07.233Z,99874.47
2022-09-15T22:40:36.822Z,99871.06
2022-09-15T22:43:06.435Z,99871.25
2022-09-15T22:45:38.601Z,99869.66
2022-09-15T22:48:08.596Z,99866.22
2022-09-15T22:50:38.256Z,99870.78
2022-09-15T22:53:08.052Z,99874.28
2022-09-15T22:55:37.621Z,99878.56
2022-09-15T22:58:07.453Z,99875.81
2022-09-15T23:00:40.114Z,99872.09
2022-09-15T23:03:10.044Z,99876.38
2022-09-15T23:05:40.115Z,99873.63
2022-09-15T23:08:09.682Z,99864.72
2022-09-15T23:10:39.275Z,99860.25
2022-09-15T23:13:08.872Z,99857.47
2022-09-15T23:15:41.051Z,99852.25
2022-09-15T23:18:10.589Z,99856.75
2022-09-15T23:20:40.545Z,99844.28
2022-09-15T23:23:10.555Z,99851.44
2022-09-15T23:25:40.533Z,99853.22
2022-09-15T23:28:10.057Z,99862.16
2022-09-15T23:30:43.610Z,99862.25
2022-09-15T23:33:13.167Z,99857.88
2022-09-15T23:35:42.719Z,99861.47
2022-09-15T23:38:12.748Z,99860.63
2022-09-15T23:40:43.936Z,99851.03
2022-09-15T23:43:13.954Z,99860.91
2022-09-15T23:45:47.046Z,99865.47
2022-09-15T23:48:17.360Z,99864.78
2022-09-15T23:50:46.906Z,99864.16
2022-09-15T23:53:16.574Z,99867.75
2022-09-15T23:55:46.524Z,99867.75
2022-09-15T23:58:16.178Z,99865.00
